Time,TemperatureF,DewpointF,PressureIn,WindDirection,WindDirectionDegrees,WindSpeedMPH,WindSpeedGustMPH,Humidity,HourlyPrecipIn,Conditions,Clouds,dailyrainin,SoftwareType,DateUTC
2013-03-08 00:10:00,66.0,63.3,30.01,ESE,112,4.2,-999.0,91,-99.99,,,0.00,Acu-Link.com,2013-03-08 06:10:00,
2013-03-08 00:25:00,65.7,63.3,30.00,East,90,5.3,-999.0,92,-99.99,,,0.00,Acu-Link.com,2013-03-08 06:25:00,
2013-03-08 00:40:00,65.7,63.6,30.01,East,90,3.7,-999.0,93,-99.99,,,0.00,Acu-Link.com,2013-03-08 06:40:00,
2013-03-08 00:55:00,65.7,63.6,30.02,ESE,112,6.3,-999.0,93,-99.99,,,0.00,Acu-Link.com,2013-03-08 06:55:00,
2013-03-08 01:10:00,66.0,63.9,30.01,East,90,5.8,-999.0,93,-99.99,,,0.00,Acu-Link.com,2013-03-08 07:10:00,
2013-03-08 01:25:00,66.0,63.9,30.00,ENE,67,6.8,-999.0,93,-99.99,,,0.00,Acu-Link.com,2013-03-08 07:25:00,
2013-03-08 01:40:00,66.0,63.9,29.98,SE,135,4.2,-999.0,93,-99.99,,,0.00,Acu-Link.com,2013-03-08 07:40:00,
2013-03-08 01:56:00,66.0,63.9,29.97,ESE,112,4.2,-999.0,93,-99.99,,,0.00,Acu-Link.com,2013-03-08 07:56:00,
2013-03-08 02:11:00,66.2,64.1,29.98,ESE,112,3.2,-999.0,93,-99.99,,,0.00,Acu-Link.com,2013-03-08 08:11:00,
2013-03-08 02:26:00,66.0,64.2,29.97,East,90,3.7,-999.0,94,-99.99,,,0.00,Acu-Link.com,2013-03-08 08:26:00,
2013-03-08 02:41:00,65.8,64.0,29.97,ESE,112,2.2,-999.0,94,-99.99,,,0.00,Acu-Link.com,2013-03-08 08:41:00,
2013-03-08 02:56:00,66.0,64.2,29.96,East,90,7.3,-999.0,94,-99.99,,,0.00,Acu-Link.com,2013-03-08 08:56:00,
2013-03-08 03:12:00,66.0,64.2,29.96,ENE,67,5.3,-999.0,94,-99.99,,,0.00,Acu-Link.com,2013-03-08 09:12:00,
2013-03-08 03:27:00,66.0,64.2,29.97,East,90,5.3,-999.0,94,-99.99,,,0.00,Acu-Link.com,2013-03-08 09:27:00,
2013-03-08 03:42:00,66.0,64.5,29.95,ESE,112,8.9,-999.0,95,-99.99,,,0.00,Acu-Link.com,2013-03-08 09:42:00,
2013-03-08 03:57:00,66.2,64.7,29.95,ESE,112,4.2,-999.0,95,-99.99,,,0.00,Acu-Link.com,2013-03-08 09:57:00,
2013-03-08 04:12:00,66.6,65.1,29.95,ESE,112,3.7,-999.0,95,-99.99,,,0.00,Acu-Link.com,2013-03-08 10:12:00,
2013-03-08 04:27:00,66.6,65.1,29.94,ESE,112,5.8,-999.0,95,-99.99,,,0.00,Acu-Link.com,2013-03-08 10:27:00,
2013-03-08 04:42:00,66.7,64.9,29.93,ESE,112,6.3,-999.0,94,-99.99,,,0.00,Acu-Link.com,2013-03-08 10:42:00,
2013-03-08 04:58:00,66.9,64.8,29.93,SE,135,6.8,-999.0,93,-99.99,,,0.00,Acu-Link.com,2013-03-08 10:58:00,
2013-03-08 05:13:00,67.1,65.0,29.94,East,90,5.3,-999.0,93,-99.99,,,0.00,Acu-Link.com,2013-03-08 11:13:00,
2013-03-08 05:28:00,67.6,65.2,29.95,East,90,3.7,-999.0,92,-99.99,,,0.00,Acu-Link.com,2013-03-08 11:28:00,
2013-03-08 05:43:00,67.6,65.2,29.97,ESE,112,3.2,-999.0,92,-99.99,,,0.00,Acu-Link.com,2013-03-08 11:43:00,
2013-03-08 05:58:00,67.5,65.1,29.95,ESE,112,6.3,-999.0,92,-99.99,,,0.00,Acu-Link.com,2013-03-08 11:58:00,
2013-03-08 06:13:00,67.3,65.2,29.96,ESE,112,3.2,-999.0,93,-99.99,,,0.00,Acu-Link.com,2013-03-08 12:13:00,
2013-03-08 06:29:00,67.3,65.2,29.97,ESE,112,6.3,-999.0,93,-99.99,,,0.00,Acu-Link.com,2013-03-08 12:29:00,
2013-03-08 06:44:00,67.5,65.4,29.96,ESE,112,4.7,-999.0,93,-99.99,,,0.00,Acu-Link.com,2013-03-08 12:44:00,
2013-03-08 06:59:00,67.6,65.5,29.96,SSE,157,3.2,-999.0,93,-99.99,,,0.00,Acu-Link.com,2013-03-08 12:59:00,
2013-03-08 07:14:00,67.8,65.4,29.97,ESE,112,2.7,-999.0,92,-99.99,,,0.00,Acu-Link.com,2013-03-08 13:14:00,
2013-03-08 07:29:00,68.2,65.8,29.97,SE,135,5.8,-999.0,92,-99.99,,,0.00,Acu-Link.com,2013-03-08 13:29:00,
2013-03-08 07:44:00,68.2,65.8,29.97,ESE,112,3.7,-999.0,92,-99.99,,,0.00,Acu-Link.com,2013-03-08 13:44:00,
2013-03-08 07:59:00,68.7,66.0,29.97,SE,135,9.4,-999.0,91,-99.99,,,0.00,Acu-Link.com,2013-03-08 13:59:00,
2013-03-08 08:14:00,69.3,66.2,29.98,SSW,202,4.2,-999.0,90,-99.99,,,0.00,Acu-Link.com,2013-03-08 14:14:00,
2013-03-08 08:29:00,69.6,66.5,29.97,ESE,112,9.4,-999.0,90,-99.99,,,0.00,Acu-Link.com,2013-03-08 14:29:00,
2013-03-08 08:45:00,70.2,66.8,29.97,ESE,112,6.8,-999.0,89,-99.99,,,0.00,Acu-Link.com,2013-03-08 14:45:00,
2013-03-08 09:00:00,70.5,66.8,29.97,ESE,112,6.8,-999.0,88,-99.99,,,0.00,Acu-Link.com,2013-03-08 15:00:00,
2013-03-08 09:15:00,70.9,66.8,29.98,East,90,5.8,-999.0,87,-99.99,,,0.00,Acu-Link.com,2013-03-08 15:15:00,
2013-03-08 09:30:00,71.2,66.8,29.99,West,270,7.3,-999.0,86,-99.99,,,0.00,Acu-Link.com,2013-03-08 15:30:00,
2013-03-08 09:45:00,71.1,66.7,29.98,ESE,112,8.3,-999.0,86,-99.99,,,0.00,Acu-Link.com,2013-03-08 15:45:00,
2013-03-08 10:00:00,71.1,66.7,29.99,SSE,157,3.2,-999.0,86,-99.99,,,0.00,Acu-Link.com,2013-03-08 16:00:00,
2013-03-08 10:15:00,71.8,67.4,29.98,ENE,67,7.3,-999.0,86,-99.99,,,0.00,Acu-Link.com,2013-03-08 16:15:00,
2013-03-08 10:30:00,72.7,67.6,30.00,East,90,6.8,-999.0,84,-99.99,,,0.00,Acu-Link.com,2013-03-08 16:30:00,
2013-03-08 10:45:00,73.4,67.6,30.00,SE,135,5.3,-999.0,82,-99.99,,,0.00,Acu-Link.com,2013-03-08 16:45:00,
2013-03-08 11:01:00,74.3,67.7,29.99,ESE,112,11.4,-999.0,80,-99.99,,,0.00,Acu-Link.com,2013-03-08 17:01:00,
2013-03-08 11:16:00,74.5,67.5,29.99,ESE,112,7.8,-999.0,79,-99.99,,,0.00,Acu-Link.com,2013-03-08 17:16:00,
2013-03-08 11:31:00,73.4,67.6,29.98,SE,135,8.3,-999.0,82,-99.99,,,0.00,Acu-Link.com,2013-03-08 17:31:00,
2013-03-08 11:46:00,75.2,67.9,29.98,ESE,112,7.8,-999.0,78,-99.99,,,0.00,Acu-Link.com,2013-03-08 17:46:00,
2013-03-08 12:01:00,75.4,67.7,29.97,ESE,112,4.7,-999.0,77,-99.99,,,0.00,Acu-Link.com,2013-03-08 18:01:00,
2013-03-08 12:31:00,75.9,67.8,29.95,East,90,9.4,-999.0,76,-99.99,,,0.00,Acu-Link.com,2013-03-08 18:31:00,
2013-03-08 12:46:00,75.2,67.5,29.94,SE,135,5.3,-999.0,77,-99.99,,,0.00,Acu-Link.com,2013-03-08 18:46:00,
2013-03-08 13:01:00,75.4,67.3,29.93,SE,135,7.8,-999.0,76,-99.99,,,0.00,Acu-Link.com,2013-03-08 19:01:00,
2013-03-08 13:17:00,75.9,67.4,29.92,SE,135,6.8,-999.0,75,-99.99,,,0.00,Acu-Link.com,2013-03-08 19:17:00,
2013-03-08 13:32:00,76.5,68.0,29.91,East,90,21.2,-999.0,75,-99.99,,,0.00,Acu-Link.com,2013-03-08 19:32:00,
2013-03-08 13:47:00,75.6,67.5,29.91,ENE,67,7.3,-999.0,76,-99.99,,,0.00,Acu-Link.com,2013-03-08 19:47:00,
2013-03-08 14:02:00,74.1,67.2,29.91,East,90,6.8,-999.0,79,-99.99,,,0.00,Acu-Link.com,2013-03-08 20:02:00,
2013-03-08 14:17:00,76.1,67.6,29.91,ESE,112,7.3,-999.0,75,-99.99,,,0.00,Acu-Link.com,2013-03-08 20:17:00,
2013-03-08 14:32:00,75.0,67.3,29.90,ENE,67,11.9,-999.0,77,-99.99,,,0.00,Acu-Link.com,2013-03-08 20:32:00,
2013-03-08 14:47:00,75.2,67.1,29.91,East,90,19.1,-999.0,76,-99.99,,,0.00,Acu-Link.com,2013-03-08 20:47:00,
2013-03-08 15:02:00,74.8,66.7,29.90,ESE,112,14.5,-999.0,76,-99.99,,,0.00,Acu-Link.com,2013-03-08 21:02:00,
2013-03-08 15:17:00,74.5,66.8,29.90,ESE,112,13.0,-999.0,77,-99.99,,,0.00,Acu-Link.com,2013-03-08 21:17:00,
2013-03-08 15:33:00,73.2,65.9,29.91,East,90,12.5,-999.0,78,-99.99,,,0.00,Acu-Link.com,2013-03-08 21:33:00,
2013-03-08 16:09:00,73.8,66.1,29.91,NE,45,6.3,-999.0,77,-99.99,,,0.00,Acu-Link.com,2013-03-08 22:09:00,
2013-03-08 16:25:00,71.2,65.1,29.91,ESE,112,14.0,-999.0,81,-99.99,,,0.00,Acu-Link.com,2013-03-08 22:25:00,
2013-03-08 16:40:00,70.9,65.1,29.90,ESE,112,10.9,-999.0,82,-99.99,,,0.00,Acu-Link.com,2013-03-08 22:40:00,
2013-03-08 16:55:00,70.7,65.3,29.91,ENE,67,10.4,-999.0,83,-99.99,,,0.00,Acu-Link.com,2013-03-08 22:55:00,
2013-03-08 17:10:00,70.5,65.1,29.92,East,90,10.4,-999.0,83,-99.99,,,0.00,Acu-Link.com,2013-03-08 23:10:00,
2013-03-08 17:25:00,70.3,64.9,29.90,SE,135,13.0,-999.0,83,-99.99,,,0.00,Acu-Link.com,2013-03-08 23:25:00,
2013-03-08 17:41:00,70.0,64.9,29.92,ENE,67,7.3,-999.0,84,-99.99,,,0.00,Acu-Link.com,2013-03-08 23:41:00,
2013-03-08 17:56:00,69.8,64.7,29.91,ESE,112,8.3,-999.0,84,-99.99,,,0.00,Acu-Link.com,2013-03-08 23:56:00,
2013-03-08 18:11:00,69.6,64.5,29.92,East,90,12.5,-999.0,84,-99.99,,,0.00,Acu-Link.com,2013-03-09 00:11:00,
2013-03-08 18:26:00,69.4,64.3,29.92,ESE,112,7.3,-999.0,84,-99.99,,,0.00,Acu-Link.com,2013-03-09 00:26:00,
2013-03-08 18:41:00,69.4,64.7,29.93,East,90,10.4,-999.0,85,-99.99,,,0.00,Acu-Link.com,2013-03-09 00:41:00,
2013-03-08 18:56:00,69.3,64.6,29.93,NE,45,11.4,-999.0,85,-99.99,,,0.00,Acu-Link.com,2013-03-09 00:56:00,
2013-03-08 19:11:00,69.1,64.7,29.91,ESE,112,8.3,-999.0,86,-99.99,,,0.00,Acu-Link.com,2013-03-09 01:11:00,
2013-03-08 19:26:00,69.1,64.7,29.89,NE,45,8.9,-999.0,86,-99.99,,,0.00,Acu-Link.com,2013-03-09 01:26:00,
2013-03-08 19:41:00,69.1,64.7,29.89,East,90,7.3,-999.0,86,-99.99,,,0.00,Acu-Link.com,2013-03-09 01:41:00,
2013-03-08 19:57:00,69.3,64.9,29.90,ESE,112,9.9,-999.0,86,-99.99,,,0.00,Acu-Link.com,2013-03-09 01:57:00,
2013-03-08 20:12:00,69.3,64.9,29.90,East,90,6.3,-999.0,86,-99.99,,,0.00,Acu-Link.com,2013-03-09 02:12:00,
2013-03-08 20:27:00,69.3,65.3,29.90,ENE,67,11.4,-999.0,87,-99.99,,,0.00,Acu-Link.com,2013-03-09 02:27:00,
2013-03-08 20:42:00,69.1,65.1,29.91,SSE,157,3.7,-999.0,87,-99.99,,,0.00,Acu-Link.com,2013-03-09 02:42:00,
2013-03-08 20:57:00,69.1,65.1,29.90,East,90,7.8,-999.0,87,-99.99,,,0.00,Acu-Link.com,2013-03-09 02:57:00,
2013-03-08 21:12:00,69.1,65.1,29.90,East,90,6.3,-999.0,87,-99.99,,,0.00,Acu-Link.com,2013-03-09 03:12:00,
2013-03-08 21:27:00,69.1,65.1,29.89,ESE,112,4.2,-999.0,87,-99.99,,,0.00,Acu-Link.com,2013-03-09 03:27:00,
2013-03-08 21:42:00,69.1,65.1,29.90,East,90,5.3,-999.0,87,-99.99,,,0.00,Acu-Link.com,2013-03-09 03:42:00,
2013-03-08 21:57:00,69.1,65.1,29.93,East,90,3.2,-999.0,87,-99.99,,,0.00,Acu-Link.com,2013-03-09 03:57:00,
2013-03-08 22:13:00,69.1,65.4,29.93,East,90,6.3,-999.0,88,-99.99,,,0.00,Acu-Link.com,2013-03-09 04:13:00,
2013-03-08 22:28:00,68.9,65.2,29.93,South,180,6.8,-999.0,88,-99.99,,,0.00,Acu-Link.com,2013-03-09 04:28:00,
2013-03-08 22:43:00,68.9,65.5,29.94,ESE,112,5.8,-999.0,89,-99.99,,,0.00,Acu-Link.com,2013-03-09 04:43:00,
2013-03-08 22:58:00,68.7,65.3,29.93,SE,135,5.8,-999.0,89,-99.99,,,0.00,Acu-Link.com,2013-03-09 04:58:00,
2013-03-08 23:13:00,68.7,65.3,29.94,SE,135,7.8,-999.0,89,-99.99,,,0.00,Acu-Link.com,2013-03-09 05:13:00,
2013-03-08 23:28:00,68.7,65.3,29.92,East,90,4.2,-999.0,89,-99.99,,,0.00,Acu-Link.com,2013-03-09 05:28:00,
2013-03-08 23:43:00,68.7,65.3,29.91,South,180,4.7,-999.0,89,-99.99,,,0.00,Acu-Link.com,2013-03-09 05:43:00,
2013-03-08 23:58:00,68.7,65.6,29.90,SSE,157,8.3,-999.0,90,-99.99,,,0.00,Acu-Link.com,2013-03-09 05:58:00,